createdAt,value
2022-08-28T00:00:39.055Z,24.10
2022-08-28T00:04:40.901Z,24.20
2022-08-28T00:08:42.794Z,24.30
2022-08-28T00:12:47.054Z,24.40
2022-08-28T00:16:49.859Z,24.40
2022-08-28T00:20:51.901Z,24.30
2022-08-28T00:24:55.072Z,24.20
2022-08-28T00:28:57.457Z,24.00
2022-08-28T00:33:03.590Z,23.90
2022-08-28T00:37:05.534Z,24.00
2022-08-28T00:41:07.525Z,23.80
2022-08-28T00:45:14.971Z,24.00
2022-08-28T00:49:20.103Z,24.20
2022-08-28T00:53:23.501Z,24.20
2022-08-28T00:57:31.062Z,24.00
2022-08-28T01:01:33.044Z,23.90
2022-08-28T01:05:37.368Z,23.60
2022-08-28T01:09:46.593Z,23.70
2022-08-28T01:13:49.721Z,23.90
2022-08-28T01:17:55.114Z,23.90
2022-08-28T01:22:19.848Z,24.00
2022-08-28T01:26:21.931Z,24.00
2022-08-28T01:30:24.838Z,24.20
2022-08-28T01:34:26.645Z,24.10
2022-08-28T01:38:28.377Z,23.80
2022-08-28T01:42:30.103Z,23.50
2022-08-28T01:46:32.344Z,23.30
2022-08-28T01:50:35.308Z,23.40
2022-08-28T01:54:37.239Z,23.80
2022-08-28T01:58:41.318Z,23.80
2022-08-28T02:02:43.286Z,23.80
2022-08-28T02:06:45.036Z,24.00
2022-08-28T02:10:47.872Z,23.90
2022-08-28T02:14:49.579Z,23.90
2022-08-28T02:18:51.892Z,23.90
2022-08-28T02:22:53.973Z,23.80
2022-08-28T02:26:55.680Z,23.90
2022-08-28T02:30:57.493Z,24.00
2022-08-28T02:34:59.327Z,24.00
2022-08-28T02:39:01.275Z,23.60
2022-08-28T02:43:04.543Z,23.90
2022-08-28T02:47:06.704Z,24.10
2022-08-28T02:51:12.864Z,24.20
2022-08-28T02:55:17.389Z,23.80
2022-08-28T02:59:19.253Z,24.00
2022-08-28T03:03:21.081Z,24.10
2022-08-28T03:07:22.937Z,23.60
2022-08-28T03:11:24.912Z,23.60
2022-08-28T03:15:26.644Z,22.70
2022-08-28T03:19:28.491Z,21.90
2022-08-28T03:23:30.982Z,22.10
2022-08-28T03:27:33.124Z,22.20
2022-08-28T03:31:36.177Z,22.70
2022-08-28T03:35:38.045Z,23.30
2022-08-28T03:39:39.809Z,23.30
2022-08-28T03:43:42.534Z,23.40
2022-08-28T03:47:44.241Z,23.30
2022-08-28T03:51:47.112Z,23.60
2022-08-28T03:55:50.766Z,23.80
2022-08-28T03:59:53.598Z,23.80
2022-08-28T04:03:55.985Z,23.80
2022-08-28T04:07:57.741Z,23.80
2022-08-28T04:11:59.435Z,24.00
2022-08-28T04:16:06.381Z,24.00
2022-08-28T04:20:10.987Z,23.10
2022-08-28T04:24:13.662Z,23.00
2022-08-28T04:28:17.682Z,21.40
2022-08-28T04:32:19.517Z,21.50
2022-08-28T04:36:21.518Z,22.30
2022-08-28T04:40:24.743Z,21.70
2022-08-28T04:44:26.993Z,22.30
2022-08-28T04:48:29.574Z,21.60
2022-08-28T04:52:31.362Z,21.90
2022-08-28T04:56:33.131Z,21.30
2022-08-28T05:00:37.817Z,21.90
2022-08-28T05:04:39.604Z,22.10
2022-08-28T05:08:41.798Z,21.70
2022-08-28T05:12:43.913Z,21.50
2022-08-28T05:16:51.115Z,21.70
2022-08-28T05:20:52.808Z,22.50
2022-08-28T05:24:54.761Z,22.20
2022-08-28T05:28:57.943Z,22.30
2022-08-28T05:33:00.093Z,22.80
2022-08-28T05:37:03.434Z,22.80
2022-08-28T05:41:05.322Z,23.20
2022-08-28T05:45:08.093Z,23.30
2022-08-28T05:49:10.601Z,23.50
2022-08-28T05:53:12.377Z,23.30
2022-08-28T05:57:14.081Z,23.50
2022-08-28T06:01:21.221Z,23.20
2022-08-28T06:05:22.926Z,23.70
2022-08-28T06:09:29.732Z,24.00
2022-08-28T06:13:32.522Z,24.20
2022-08-28T06:17:37.909Z,23.70
2022-08-28T06:21:41.433Z,23.50
2022-08-28T06:25:47.003Z,22.70
2022-08-28T06:29:48.687Z,23.10
2022-08-28T06:33:50.504Z,23.10
2022-08-28T06:37:52.284Z,23.10
2022-08-28T06:41:54.101Z,23.10
2022-08-28T06:45:57.449Z,23.50
2022-08-28T06:49:59.269Z,23.00
2022-08-28T06:54:01.866Z,22.90
2022-08-28T06:58:05.005Z,22.90
2022-08-28T07:02:07.720Z,23.50
2022-08-28T07:06:10.950Z,23.80
2022-08-28T07:10:12.728Z,23.00
2022-08-28T07:14:14.533Z,23.10
2022-08-28T07:18:17.513Z,23.10
2022-08-28T07:22:19.263Z,23.10
2022-08-28T07:26:23.686Z,23.70
2022-08-28T07:30:25.439Z,23.90
2022-08-28T07:34:27.504Z,23.90
2022-08-28T07:38:29.638Z,22.90
2022-08-28T07:42:49.785Z,23.30
2022-08-28T07:46:55.735Z,23.50
2022-08-28T07:50:57.484Z,23.00
2022-08-28T07:54:59.254Z,23.70
2022-08-28T07:59:03.276Z,23.90
2022-08-28T08:03:05.080Z,24.20
2022-08-28T08:07:08.254Z,23.80
2022-08-28T08:11:16.657Z,23.30
2022-08-28T08:15:19.316Z,23.00
2022-08-28T08:19:21.198Z,23.00
2022-08-28T08:23:23.114Z,23.30
2022-08-28T08:27:24.833Z,23.90
2022-08-28T08:31:35.221Z,24.30
2022-08-28T08:35:37.136Z,24.80
2022-08-28T08:39:39.876Z,25.10
2022-08-28T08:43:56.646Z,25.50
2022-08-28T08:48:01.218Z,24.70
2022-08-28T08:52:19.885Z,24.70
2022-08-28T08:56:22.142Z,25.10
2022-08-28T09:00:24.064Z,24.80
2022-08-28T09:04:57.667Z,24.10
2022-08-28T09:09:02.717Z,24.00
2022-08-28T09:13:34.149Z,24.70
2022-08-28T09:17:53.206Z,24.70
2022-08-28T09:21:54.987Z,23.30
2022-08-28T09:26:01.790Z,22.60
2022-08-28T09:30:08.206Z,22.30
2022-08-28T09:34:28.996Z,23.10
2022-08-28T09:38:30.735Z,23.40
2022-08-28T09:42:50.968Z,23.60
2022-08-28T09:46:52.764Z,23.40
2022-08-28T09:51:31.703Z,23.60
2022-08-28T09:55:59.621Z,24.40
2022-08-28T10:00:01.405Z,24.90
2022-08-28T10:04:39.835Z,24.40
2022-08-28T10:09:10.495Z,25.00
2022-08-28T10:13:17.826Z,25.00
2022-08-28T10:17:24.728Z,25.10
2022-08-28T10:21:26.449Z,24.30
2022-08-28T10:26:02.018Z,24.30
2022-08-28T10:30:17.200Z,24.90
2022-08-28T10:34:33.936Z,25.50
2022-08-28T10:38:40.379Z,26.00
2022-08-28T10:43:09.483Z,26.60
2022-08-28T10:47:12.931Z,26.70
2022-08-28T10:51:43.557Z,27.20
2022-08-28T10:56:02.857Z,26.70
2022-08-28T11:00:12.702Z,26.20
2022-08-28T11:04:28.201Z,25.90
2022-08-28T11:08:36.036Z,25.60
2022-08-28T11:12:43.347Z,25.60
2022-08-28T11:16:47.059Z,26.10
2022-08-28T11:21:02.653Z,26.10
2022-08-28T11:25:26.604Z,25.70
2022-08-28T11:30:01.929Z,25.70
2022-08-28T11:34:05.561Z,24.70
2022-08-28T11:38:07.900Z,25.30
2022-08-28T11:42:09.552Z,24.90
2022-08-28T11:46:33.057Z,25.80
2022-08-28T11:51:04.181Z,25.10
2022-08-28T11:55:19.960Z,25.60
2022-08-28T12:00:03.328Z,25.80
2022-08-28T12:04:14.599Z,25.40
2022-08-28T12:08:44.485Z,25.90
2022-08-28T12:12:46.241Z,26.10
2022-08-28T12:17:03.280Z,25.70
2022-08-28T12:21:12.268Z,26.60
2022-08-28T12:25:46.252Z,26.00
2022-08-28T12:29:50.588Z,26.80
2022-08-28T12:34:00.912Z,27.40
2022-08-28T12:38:05.916Z,27.70
2022-08-28T12:42:17.261Z,27.80
2022-08-28T12:46:23.368Z,27.30
2022-08-28T12:50:37.010Z,27.30
2022-08-28T12:54:39.541Z,27.40
2022-08-28T12:58:42.672Z,27.70
2022-08-28T13:02:48.761Z,27.50
2022-08-28T13:07:00.241Z,28.00
2022-08-28T13:11:02.540Z,28.60
2022-08-28T13:15:04.699Z,28.10
2022-08-28T13:19:06.580Z,27.80
2022-08-28T13:23:09.281Z,27.90
2022-08-28T13:27:19.323Z,27.20
2022-08-28T13:31:42.507Z,27.50
2022-08-28T13:35:44.370Z,27.10
2022-08-28T13:39:46.182Z,26.40
2022-08-28T13:43:47.956Z,26.30
2022-08-28T13:47:49.775Z,25.70
2022-08-28T13:51:51.632Z,26.20
2022-08-28T13:55:54.239Z,26.40
2022-08-28T13:59:56.043Z,26.70
2022-08-28T14:03:58.911Z,26.40
2022-08-28T14:08:00.853Z,27.20
2022-08-28T14:12:04.218Z,27.60
2022-08-28T14:16:07.884Z,28.00
2022-08-28T14:20:10.008Z,27.60
2022-08-28T14:24:12.638Z,28.20
2022-08-28T14:28:15.527Z,28.30
2022-08-28T14:32:17.292Z,27.70
2022-08-28T14:36:22.328Z,27.70
2022-08-28T14:40:24.132Z,27.60
2022-08-28T14:44:26.617Z,27.70
2022-08-28T14:48:28.626Z,27.50
2022-08-28T14:52:30.332Z,28.00
2022-08-28T14:56:32.602Z,27.50
2022-08-28T15:00:39.539Z,27.80
2022-08-28T15:04:41.295Z,27.70
2022-08-28T15:08:43.034Z,27.10
2022-08-28T15:12:44.933Z,27.90
2022-08-28T15:16:49.422Z,27.50
2022-08-28T15:20:51.192Z,26.90
2022-08-28T15:24:53.443Z,27.00
2022-08-28T15:29:11.843Z,26.80
2022-08-28T15:33:14.889Z,26.40
2022-08-28T15:37:18.274Z,26.50
2022-08-28T15:41:24.355Z,27.10
2022-08-28T15:45:26.766Z,27.50
2022-08-28T15:49:31.175Z,27.90
2022-08-28T15:53:34.837Z,28.10
2022-08-28T15:57:37.392Z,28.10
2022-08-28T16:01:39.313Z,28.20
2022-08-28T16:05:41.248Z,28.20
2022-08-28T16:09:43.099Z,27.40
2022-08-28T16:13:45.406Z,27.20
2022-08-28T16:17:47.178Z,27.10
2022-08-28T16:21:48.949Z,27.10
2022-08-28T16:25:50.950Z,26.90
2022-08-28T16:29:52.963Z,25.30
2022-08-28T16:33:54.834Z,25.90
2022-08-28T16:37:56.589Z,26.00
2022-08-28T16:41:58.504Z,26.40
2022-08-28T16:46:00.243Z,26.70
2022-08-28T16:50:05.906Z,27.10
2022-08-28T16:54:07.929Z,27.20
2022-08-28T16:58:09.656Z,27.00
2022-08-28T17:02:13.214Z,27.20
2022-08-28T17:06:23.269Z,27.40
2022-08-28T17:10:25.491Z,27.20
2022-08-28T17:14:28.153Z,26.60
2022-08-28T17:18:30.529Z,27.10
2022-08-28T17:22:35.363Z,27.20
2022-08-28T17:26:37.117Z,27.00
2022-08-28T17:30:38.910Z,27.10
2022-08-28T17:34:41.198Z,27.40
2022-08-28T17:38:44.659Z,27.10
2022-08-28T17:42:48.712Z,27.20
2022-08-28T17:46:51.729Z,27.30
2022-08-28T17:50:53.541Z,27.30
2022-08-28T17:54:55.560Z,26.90
2022-08-28T17:58:57.595Z,26.90
2022-08-28T18:02:59.770Z,26.90
2022-08-28T18:07:01.816Z,26.90
2022-08-28T18:11:04.135Z,26.50
2022-08-28T18:15:07.841Z,26.00
2022-08-28T18:19:10.983Z,26.00
2022-08-28T18:23:12.766Z,26.00
2022-08-28T18:27:17.070Z,26.00
2022-08-28T18:31:19.191Z,25.90
2022-08-28T18:35:30.999Z,25.40
2022-08-28T18:39:35.873Z,25.30
2022-08-28T18:43:37.695Z,25.30
2022-08-28T18:47:39.498Z,25.00
2022-08-28T18:51:43.396Z,24.70
2022-08-28T18:55:45.791Z,24.60
2022-08-28T18:59:48.408Z,24.30
2022-08-28T19:03:50.390Z,24.40
2022-08-28T19:07:52.181Z,24.50
2022-08-28T19:11:54.227Z,24.30
2022-08-28T19:15:56.186Z,24.60
2022-08-28T19:19:57.968Z,24.70
2022-08-28T19:24:00.105Z,24.70
2022-08-28T19:28:02.562Z,24.60
2022-08-28T19:32:05.928Z,24.60
2022-08-28T19:36:08.234Z,24.40
2022-08-28T19:40:11.685Z,24.00
2022-08-28T19:44:13.937Z,23.30
2022-08-28T19:48:16.418Z,23.10
2022-08-28T19:52:19.081Z,22.90
2022-08-28T19:56:25.097Z,23.10
2022-08-28T20:00:29.601Z,23.10
2022-08-28T20:04:32.401Z,23.30
2022-08-28T20:08:34.575Z,23.30
2022-08-28T20:12:36.979Z,23.60
2022-08-28T20:16:42.273Z,23.80
2022-08-28T20:20:48.725Z,23.90
2022-08-28T20:24:50.502Z,24.00
2022-08-28T20:28:53.874Z,24.00
2022-08-28T20:32:57.203Z,24.00
2022-08-28T20:36:59.149Z,23.90
2022-08-28T20:41:13.567Z,23.90
2022-08-28T20:45:17.046Z,23.90
2022-08-28T20:49:21.896Z,23.90
2022-08-28T20:53:36.795Z,23.70
2022-08-28T20:57:40.026Z,23.50
2022-08-28T21:01:41.915Z,23.60
2022-08-28T21:05:47.677Z,23.30
2022-08-28T21:10:05.610Z,23.40
2022-08-28T21:14:09.625Z,23.30
2022-08-28T21:18:11.379Z,22.70
2022-08-28T21:22:15.029Z,22.50
2022-08-28T21:26:17.206Z,22.70
2022-08-28T21:30:21.668Z,23.10
2022-08-28T21:34:23.443Z,23.20
2022-08-28T21:38:25.237Z,23.30
2022-08-28T21:42:28.196Z,23.30
2022-08-28T21:46:30.276Z,23.10
2022-08-28T21:50:32.224Z,22.90
2022-08-28T21:54:34.136Z,23.00
2022-08-28T21:58:38.527Z,23.10
2022-08-28T22:02:40.330Z,22.90
2022-08-28T22:06:42.231Z,22.90
2022-08-28T22:10:45.047Z,22.90
2022-08-28T22:14:46.798Z,22.90
2022-08-28T22:18:48.961Z,22.90
2022-08-28T22:23:08.986Z,22.80
2022-08-28T22:27:13.404Z,22.90
2022-08-28T22:31:15.415Z,22.90
2022-08-28T22:35:19.881Z,22.40
2022-08-28T22:39:21.657Z,22.00
2022-08-28T22:43:23.441Z,21.80
2022-08-28T22:47:25.581Z,21.60
2022-08-28T22:51:27.326Z,21.30
2022-08-28T22:55:29.142Z,21.00
2022-08-28T22:59:31.530Z,21.40
2022-08-28T23:03:33.559Z,21.80
2022-08-28T23:07:36.485Z,21.40
2022-08-28T23:11:38.293Z,21.20
2022-08-28T23:15:40.090Z,21.20
2022-08-28T23:19:41.867Z,21.60
2022-08-28T23:23:44.511Z,20.80
2022-08-28T23:27:47.471Z,20.50
2022-08-28T23:31:49.650Z,20.70
2022-08-28T23:35:52.293Z,20.10
2022-08-28T23:39:54.631Z,20.40
2022-08-28T23:43:56.637Z,20.90
2022-08-28T23:47:58.737Z,20.70
2022-08-28T23:52:01.530Z,20.90
2022-08-28T23:56:04.065Z,20.80
